Time;durP1;ratioP1;P1;durP2;ratioP2;P2;SDS_P1;SDS_P2;PMS_P1;PMS_P2;Temp;Humidity;BMP_temperature;BMP_pressure;BME280_temperature;BME280_humidity;BME280_pressure;Samples;Min_cycle;Max_cycle;Signal;HPM_P1;HPM_P2
2021/05/03 00:00:22;;;;;;;20.23;10.23;;;;;;;30.56;57.71;100814.75;5031662;28;66922;-41
2021/05/03 00:02:52;;;;;;;23.38;10.77;;;;;;;30.86;59.07;100846.66;5031714;28;70062;-41
2021/05/03 00:05:26;;;;;;;25.20;10.48;;;;;;;30.82;60.21;100835.44;5025177;28;64339;-42
2021/05/03 00:07:56;;;;;;;29.65;10.48;;;;;;;30.97;59.06;100856.75;5041521;28;69431;-41
2021/05/03 00:10:26;;;;;;;24.95;9.77;;;;;;;31.02;60.07;100866.94;5041919;28;65334;-41
2021/05/03 00:12:56;;;;;;;80.30;12.57;;;;;;;31.06;60.13;100877.09;5036851;28;69939;-42
2021/05/03 00:15:26;;;;;;;43.38;13.02;;;;;;;31.16;59.56;100880.13;5028209;28;65983;-41
2021/05/03 00:17:56;;;;;;;38.30;12.68;;;;;;;31.20;59.57;100885.09;5032656;28;69983;-42
2021/05/03 00:20:26;;;;;;;46.83;12.02;;;;;;;31.26;59.60;100895.06;5042069;28;66092;-40
2021/05/03 00:22:57;;;;;;;22.85;9.30;;;;;;;31.22;60.61;100883.00;5036241;28;69185;-40
2021/05/03 00:25:26;;;;;;;36.97;10.38;;;;;;;31.24;60.12;100899.88;5035644;28;65536;-40
2021/05/03 00:28:10;;;;;;;44.90;10.32;;;;;;;31.29;60.26;100902.75;5049220;28;69503;-40
2021/05/03 00:30:41;;;;;;;32.28;9.27;;;;;;;31.33;59.79;100912.91;5035233;28;66135;-40
2021/05/03 00:33:10;;;;;;;36.47;10.30;;;;;;;31.37;60.50;100902.47;5038692;28;70099;-41
2021/05/03 00:35:40;;;;;;;42.80;18.55;;;;;;;31.39;60.41;100895.78;5040514;28;66093;-40
2021/05/03 00:38:10;;;;;;;61.58;20.40;;;;;;;31.41;60.35;100900.16;5037927;28;70620;-40
2021/05/03 00:40:41;;;;;;;50.70;19.27;;;;;;;31.47;60.14;100900.09;5047386;28;65118;-41
2021/05/03 00:43:17;;;;;;;46.30;21.48;;;;;;;31.44;60.45;100897.84;5043000;28;69266;-41
2021/05/03 00:45:48;;;;;;;44.05;20.23;;;;;;;31.54;60.47;100909.00;5045960;28;65989;-40
2021/05/03 00:48:19;;;;;;;54.72;19.67;;;;;;;31.65;59.89;100909.28;5049235;28;69337;-41
2021/05/03 00:50:50;;;;;;;48.17;21.17;;;;;;;31.75;59.59;100910.44;5035782;28;66050;-40
2021/05/03 00:53:20;;;;;;;44.20;21.55;;;;;;;31.84;59.05;100919.09;5045470;28;69816;-40
2021/05/03 00:55:50;;;;;;;36.92;20.83;;;;;;;31.92;58.65;100926.97;5042626;28;66345;-40
2021/05/03 00:58:21;;;;;;;44.63;20.95;;;;;;;31.99;59.25;100925.03;5050275;28;70338;-40
2021/05/03 01:00:51;;;;;;;51.85;19.60;;;;;;;31.99;58.73;100922.31;5028067;28;66705;-39
2021/05/03 01:03:21;;;;;;;37.40;17.48;;;;;;;32.07;58.42;100929.31;5039309;28;69861;-40
2021/05/03 01:05:52;;;;;;;45.55;17.77;;;;;;;32.15;58.35;100936.28;5025537;28;66174;-39
2021/05/03 01:08:22;;;;;;;46.28;17.63;;;;;;;32.21;58.57;100938.13;5032662;28;70578;-40
2021/05/03 01:10:51;;;;;;;58.00;16.30;;;;;;;32.21;58.74;100932.69;5021220;28;65403;-41
2021/05/03 01:13:22;;;;;;;35.28;17.63;;;;;;;32.25;59.20;100939.31;5031809;28;69211;-40
2021/05/03 01:15:53;;;;;;;59.97;15.98;;;;;;;32.35;58.47;100936.06;5033749;28;66470;-41
2021/05/03 01:18:24;;;;;;;49.28;13.20;;;;;;;32.42;58.07;100921.31;5029088;28;71760;-41
2021/05/03 01:20:56;;;;;;;36.08;12.75;;;;;;;32.47;58.04;100924.22;5034627;28;65222;-40
2021/05/03 01:23:26;;;;;;;21.13;11.80;;;;;;;32.51;57.58;100919.13;5031190;28;69826;-40
2021/05/03 01:25:55;;;;;;;41.50;11.55;;;;;;;32.51;57.60;100923.75;5025486;28;66346;-41
2021/05/03 01:28:25;;;;;;;39.88;10.70;;;;;;;32.54;56.97;100924.13;5031144;28;70031;-38
2021/05/03 01:30:58;;;;;;;36.22;9.50;;;;;;;32.49;56.95;100927.53;5024851;28;65326;-40
2021/05/03 01:33:28;;;;;;;31.55;10.00;;;;;;;32.50;56.80;100939.22;5024236;28;70694;-40
2021/05/03 01:35:58;;;;;;;25.52;9.40;;;;;;;32.47;56.20;100923.38;5024396;28;65032;-40
2021/05/03 01:38:28;;;;;;;8.18;7.10;;;;;;;32.46;56.16;100927.19;5027768;28;70190;-39
2021/05/03 01:40:58;;;;;;;22.08;8.38;;;;;;;32.46;56.11;100925.28;5030853;28;66009;-41
2021/05/03 01:43:28;;;;;;;13.27;8.02;;;;;;;32.52;55.87;100926.25;5026314;28;70306;-41
2021/05/03 01:45:59;;;;;;;12.35;8.32;;;;;;;32.57;55.66;100922.81;5031657;28;65379;-41
2021/05/03 01:48:31;;;;;;;25.02;8.05;;;;;;;32.57;55.48;100923.66;5032179;28;70194;-40
2021/05/03 01:51:01;;;;;;;27.67;8.65;;;;;;;32.65;55.51;100927.94;5031979;28;66219;-42
2021/05/03 01:53:31;;;;;;;31.73;9.02;;;;;;;32.68;55.54;100930.19;5031522;28;69891;-40
2021/05/03 01:56:01;;;;;;;25.52;8.77;;;;;;;32.64;55.86;100929.00;5033001;28;66052;-39
2021/05/03 01:58:32;;;;;;;30.55;8.40;;;;;;;32.68;55.39;100941.03;5034888;28;69243;-39
2021/05/03 02:01:02;;;;;;;37.47;9.75;;;;;;;32.69;55.24;100926.41;5029917;28;64995;-40
2021/05/03 02:03:32;;;;;;;35.38;9.48;;;;;;;32.73;55.73;100933.03;5041939;28;69901;-40
2021/05/03 02:06:03;;;;;;;42.75;11.30;;;;;;;32.79;55.28;100914.97;5040910;28;66545;-39
2021/05/03 02:08:34;;;;;;;31.83;10.88;;;;;;;32.81;55.80;100921.84;5039855;28;69575;-39
2021/05/03 02:11:04;;;;;;;36.20;10.75;;;;;;;32.86;55.22;100916.53;5035229;28;65826;-40
2021/05/03 02:13:36;;;;;;;31.42;10.32;;;;;;;32.83;55.67;100911.56;5034150;28;70167;-41
2021/05/03 02:16:06;;;;;;;31.55;9.10;;;;;;;32.90;55.62;100912.31;5029275;28;65603;-41
2021/05/03 02:18:36;;;;;;;32.78;9.35;;;;;;;32.87;55.24;100901.88;5033207;28;68970;-40
2021/05/03 02:21:06;;;;;;;17.33;8.73;;;;;;;32.90;55.77;100904.16;5034014;28;66471;-41
2021/05/03 02:23:37;;;;;;;24.77;9.63;;;;;;;33.05;55.19;100911.06;5036545;28;70061;-41
2021/05/03 02:26:07;;;;;;;22.63;8.60;;;;;;;33.03;55.65;100905.84;5012978;28;65502;-40
2021/05/03 02:28:36;;;;;;;21.30;8.57;;;;;;;33.03;55.80;100907.75;5030659;28;70094;-40
2021/05/03 02:31:06;;;;;;;25.25;9.02;;;;;;;33.09;55.45;100894.03;5028336;28;65525;-41
2021/05/03 02:33:36;;;;;;;15.35;9.30;;;;;;;33.15;55.44;100892.25;5032901;28;68502;-40
2021/05/03 02:36:06;;;;;;;34.10;8.95;;;;;;;33.17;55.36;100879.25;5036070;28;65110;-41
2021/05/03 02:38:50;;;;;;;27.67;8.65;;;;;;;33.18;55.32;100880.91;5029648;28;69796;-41
2021/05/03 02:41:21;;;;;;;18.45;8.48;;;;;;;33.22;55.58;100873.94;5030812;28;66638;-40
2021/05/03 02:43:51;;;;;;;35.10;10.00;;;;;;;33.30;55.22;100883.66;5036521;28;69246;-41
2021/05/03 02:46:22;;;;;;;23.27;9.40;;;;;;;33.27;55.68;100881.41;5034192;28;66404;-40
2021/05/03 02:48:52;;;;;;;20.50;9.90;;;;;;;33.30;55.35;100878.22;5033087;28;70163;-40
2021/05/03 02:51:23;;;;;;;10.48;9.32;;;;;;;33.31;55.03;100879.84;5028212;28;67391;-40
2021/05/03 02:53:53;;;;;;;29.30;9.63;;;;;;;33.30;55.17;100872.78;5036881;28;69784;-39
2021/05/03 02:56:24;;;;;;;25.10;9.10;;;;;;;33.34;55.58;100874.75;5026179;28;67873;-40
2021/05/03 02:59:00;;;;;;;31.75;9.45;;;;;;;33.32;55.24;100865.19;5033414;28;69762;-40
2021/05/03 03:01:30;;;;;;;33.20;9.38;;;;;;;33.33;55.10;100867.69;5031847;28;66194;-41
2021/05/03 03:04:00;;;;;;;26.25;8.80;;;;;;;33.35;55.33;100876.44;5025365;28;70443;-40
2021/05/03 03:06:30;;;;;;;31.23;8.88;;;;;;;33.37;55.58;100868.03;5034595;28;65392;-40
2021/05/03 03:09:00;;;;;;;26.77;8.90;;;;;;;33.41;55.16;100876.56;5033712;28;70806;-40
2021/05/03 03:11:30;;;;;;;23.33;9.45;;;;;;;33.43;55.82;100877.13;5030347;28;66037;-40
2021/05/03 03:14:02;;;;;;;34.97;9.48;;;;;;;33.49;55.64;100876.16;5025419;28;70136;-41
2021/05/03 03:16:32;;;;;;;34.28;9.30;;;;;;;33.47;55.52;100870.16;5016845;28;65889;-40
2021/05/03 03:19:02;;;;;;;29.83;10.20;;;;;;;33.47;55.43;100876.41;5030277;28;70133;-41
2021/05/03 03:21:32;;;;;;;23.92;9.23;;;;;;;33.47;55.30;100878.31;5032713;28;66551;-41
2021/05/03 03:24:02;;;;;;;29.02;10.32;;;;;;;33.48;55.03;100869.91;5028905;28;70131;-39
2021/05/03 03:26:31;;;;;;;43.35;10.57;;;;;;;33.49;55.12;100870.72;5029731;28;65336;-39
2021/05/03 03:29:02;;;;;;;41.08;10.50;;;;;;;33.52;55.05;100873.00;5032672;28;70330;-40
2021/05/03 03:31:32;;;;;;;40.25;10.18;;;;;;;33.48;54.53;100864.47;5033902;28;65271;-40
2021/05/03 03:34:03;;;;;;;38.47;10.07;;;;;;;33.51;54.43;100868.59;5036463;28;70139;-40
2021/05/03 03:36:33;;;;;;;34.42;10.75;;;;;;;33.53;54.74;100869.22;5022361;28;65857;-40
2021/05/03 03:39:05;;;;;;;31.48;9.57;;;;;;;33.52;54.73;100868.41;5032494;28;69970;-40
2021/05/03 03:41:37;;;;;;;32.90;10.13;;;;;;;33.54;55.36;100863.56;5019135;28;66521;-38
2021/05/03 03:44:07;;;;;;;22.40;10.38;;;;;;;33.55;54.32;100872.56;5027241;28;69273;-39
2021/05/03 03:46:37;;;;;;;18.50;9.07;;;;;;;33.44;53.08;100873.34;5028726;28;65560;-39
2021/05/03 03:49:07;;;;;;;15.73;9.50;;;;;;;33.32;51.88;100863.31;5033178;28;70181;-40
2021/05/03 03:51:38;;;;;;;14.38;8.38;;;;;;;33.16;51.18;100850.44;5033035;28;66196;-39
2021/05/03 03:54:08;;;;;;;13.27;8.32;;;;;;;33.01;50.77;100845.47;5027029;28;69913;-38
2021/05/03 03:56:38;;;;;;;17.13;7.88;;;;;;;32.91;49.59;100840.59;5033196;28;65629;-38
2021/05/03 03:59:10;;;;;;;11.63;7.65;;;;;;;32.86;48.97;100831.50;5016999;28;70042;-39
2021/05/03 04:01:41;;;;;;;;;;;;;;;32.70;47.81;100838.44;5018840;28;65589;-39
2021/05/03 04:04:19;;;;;;;8.63;7.72;;;;;;;32.75;47.67;100832.31;5030069;28;69582;-40
2021/05/03 04:09:59;;;;;;;7.65;6.90;;;;;;;32.61;46.52;100820.84;5033361;28;69225;-39
2021/05/03 04:13:01;;;;;;;7.30;6.60;;;;;;;32.46;45.99;100807.72;5027777;28;66037;-40
2021/05/03 04:21:54;;;;;;;10.02;6.65;;;;;;;32.38;44.39;100797.97;5023518;28;70432;-38
2021/05/03 04:26:57;;;;;;;7.70;6.93;;;;;;;32.31;43.61;100778.22;5031043;28;70265;-39
2021/05/03 04:29:28;;;;;;;6.95;6.45;;;;;;;32.30;43.24;100787.44;5020927;28;67001;-39
2021/05/03 04:31:59;;;;;;;6.82;6.22;;;;;;;32.30;43.30;100792.06;5020419;28;71641;-38
2021/05/03 04:34:30;;;;;;;8.20;6.10;;;;;;;32.32;43.36;100789.91;5031795;28;65403;-38
2021/05/03 04:37:00;;;;;;;6.80;6.20;;;;;;;32.23;42.99;100779.41;5010069;28;69834;-38
2021/05/03 04:39:31;;;;;;;7.20;6.57;;;;;;;32.17;42.49;100774.06;5020375;28;66161;-38
2021/05/03 04:42:01;;;;;;;8.02;6.75;;;;;;;32.13;42.67;100771.00;5033533;28;70004;-38
2021/05/03 04:44:31;;;;;;;9.23;6.55;;;;;;;32.13;42.96;100771.00;5035485;28;66096;-38
2021/05/03 04:47:01;;;;;;;9.35;6.45;;;;;;;32.14;42.37;100771.81;5025860;28;69200;-38
2021/05/03 04:49:31;;;;;;;10.40;6.43;;;;;;;32.13;42.16;100770.19;5030803;28;66057;-38
2021/05/03 04:52:01;;;;;;;7.43;6.90;;;;;;;32.12;42.51;100779.34;5031704;28;69795;-39
2021/05/03 04:54:31;;;;;;;7.15;5.80;;;;;;;32.10;42.06;100765.22;5023880;28;66425;-39
2021/05/03 04:57:03;;;;;;;12.95;6.90;;;;;;;32.10;41.78;100757.09;5032139;28;69101;-40
2021/05/03 04:59:33;;;;;;;8.55;6.05;;;;;;;32.12;41.40;100752.22;5033355;28;65401;-39
2021/05/03 05:02:04;;;;;;;7.10;5.90;;;;;;;32.07;41.20;100746.66;5032624;28;69368;-40
2021/05/03 05:04:34;;;;;;;10.52;6.47;;;;;;;32.09;41.31;100747.25;5035840;28;65107;-40
2021/05/03 05:07:04;;;;;;;6.93;6.28;;;;;;;32.13;41.27;100733.00;5031062;28;68832;-40
2021/05/03 05:09:35;;;;;;;6.82;5.88;;;;;;;32.10;40.82;100730.78;5031520;28;66047;-40
2021/05/03 05:12:07;;;;;;;7.07;5.53;;;;;;;31.97;40.72;100707.38;5030199;28;69289;-40
2021/05/03 05:14:38;;;;;;;6.53;5.88;;;;;;;32.10;40.84;100711.78;5030268;28;65812;-40
2021/05/03 05:17:08;;;;;;;6.40;6.07;;;;;;;32.06;40.80;100721.41;5030765;28;70014;-40
2021/05/03 05:19:39;;;;;;;5.90;5.40;;;;;;;32.11;40.79;100718.03;5026253;28;67180;-40
2021/05/03 05:22:12;;;;;;;10.88;5.57;;;;;;;32.15;40.45;100708.34;5029075;28;72358;-40
2021/05/03 05:24:43;;;;;;;6.03;5.53;;;;;;;32.12;40.46;100698.78;5027212;28;65428;-40
2021/05/03 05:27:13;;;;;;;6.50;5.97;;;;;;;32.16;40.03;100697.25;5026615;28;70622;-40
2021/05/03 05:29:44;;;;;;;6.13;5.57;;;;;;;32.18;40.09;100691.59;5021415;28;66198;-40
2021/05/03 05:32:16;;;;;;;6.15;5.65;;;;;;;32.16;39.87;100689.13;5026730;28;69494;-39
2021/05/03 05:34:46;;;;;;;5.95;5.47;;;;;;;32.13;39.78;100678.75;5022720;28;67006;-39
2021/05/03 05:37:16;;;;;;;6.10;5.60;;;;;;;32.14;39.59;100674.97;5025280;28;71148;-40
2021/05/03 05:39:47;;;;;;;6.00;5.60;;;;;;;32.15;39.40;100663.06;5028181;28;66466;-40
2021/05/03 05:42:18;;;;;;;5.90;5.35;;;;;;;32.13;39.79;100667.06;5026945;28;70843;-37
2021/05/03 05:44:48;;;;;;;5.88;5.40;;;;;;;32.12;39.36;100659.97;5019056;28;65314;-39
2021/05/03 05:47:22;;;;;;;6.07;5.68;;;;;;;32.15;39.28;100654.91;5022399;28;69961;-39
2021/05/03 05:49:52;;;;;;;6.22;5.63;;;;;;;32.18;39.32;100651.72;5032689;28;65940;-39
2021/05/03 05:52:23;;;;;;;6.07;5.68;;;;;;;32.12;38.38;100643.69;5027649;28;70071;-40
2021/05/03 05:54:54;;;;;;;6.47;5.82;;;;;;;32.15;39.06;100624.22;5027814;28;65432;-40
2021/05/03 05:57:24;;;;;;;6.18;5.68;;;;;;;32.21;38.05;100623.31;5029489;28;69292;-39
2021/05/03 05:59:55;;;;;;;6.47;6.07;;;;;;;32.21;38.63;100631.44;5026474;28;65954;-40
2021/05/03 06:02:26;;;;;;;6.30;5.60;;;;;;;32.19;38.21;100620.00;5011089;28;69402;-40
2021/05/03 06:04:57;;;;;;;6.45;5.50;;;;;;;32.21;38.28;100615.16;5029965;28;65402;-39
2021/05/03 06:07:28;;;;;;;13.98;5.32;;;;;;;32.23;37.68;100607.59;5025670;28;69241;-39
2021/05/03 06:09:59;;;;;;;6.47;5.22;;;;;;;32.23;38.34;100607.59;5032328;28;66256;-39
2021/05/03 06:12:30;;;;;;;6.60;6.00;;;;;;;32.21;37.58;100588.84;5019834;28;70153;-40
2021/05/03 06:15:08;;;;;;;6.72;5.80;;;;;;;32.29;37.49;100595.81;5026287;28;66359;-37
2021/05/03 06:17:39;;;;;;;5.67;5.07;;;;;;;32.35;38.03;100581.28;5034865;28;69288;-39
2021/05/03 06:20:11;;;;;;;7.22;5.28;;;;;;;32.38;37.47;100575.38;5034203;28;66337;-40
2021/05/03 06:22:41;;;;;;;6.45;5.43;;;;;;;32.38;37.45;100572.66;5028788;28;70125;-39
2021/05/03 06:25:12;;;;;;;5.47;5.03;;;;;;;32.38;37.24;100561.81;5022249;28;65332;-39
2021/05/03 06:27:43;;;;;;;6.13;5.40;;;;;;;32.41;36.77;100555.88;5020201;28;70062;-39
2021/05/03 06:30:14;;;;;;;5.40;5.00;;;;;;;32.38;37.17;100550.13;5024945;28;65921;-39
2021/05/03 06:32:44;;;;;;;5.72;5.13;;;;;;;32.46;36.68;100555.22;5031189;28;70154;-38
2021/05/03 06:35:19;;;;;;;6.25;5.63;;;;;;;32.53;36.95;100574.06;5026969;28;65443;-39
2021/05/03 06:37:52;;;;;;;7.35;5.28;;;;;;;32.55;36.40;100563.81;5039592;28;70438;-39
2021/05/03 06:40:24;;;;;;;6.18;5.30;;;;;;;32.58;36.64;100560.63;5031872;28;65659;-39
2021/05/03 06:42:55;;;;;;;8.60;4.78;;;;;;;32.58;36.19;100538.88;5032160;28;68931;-41
2021/05/03 06:45:33;;;;;;;5.53;5.13;;;;;;;32.64;36.27;100554.22;5027850;28;66004;-39
2021/05/03 06:48:07;;;;;;;6.75;4.78;;;;;;;32.64;35.90;100543.34;5033240;28;69119;-40
2021/05/03 06:50:40;;;;;;;8.38;5.85;;;;;;;32.71;36.08;100538.63;5036996;28;66885;-40
2021/05/03 06:53:12;;;;;;;6.45;6.00;;;;;;;32.71;35.90;100538.63;5025915;28;68180;-40
2021/05/03 06:55:46;;;;;;;7.47;5.57;;;;;;;32.77;36.46;100531.41;5031942;28;65544;-40
2021/05/03 06:58:16;;;;;;;6.63;5.93;;;;;;;32.80;36.09;100537.16;5028713;28;70027;-39
2021/05/03 07:00:46;;;;;;;9.35;6.20;;;;;;;32.85;36.02;100539.16;5038123;28;65097;-39
2021/05/03 07:03:17;;;;;;;6.28;5.57;;;;;;;32.84;35.60;100522.03;5035895;28;68968;-39
2021/05/03 07:05:48;;;;;;;;;;;;;;;32.80;34.86;100515.44;5034227;28;66112;-39
2021/05/03 07:08:23;;;;;;;8.10;5.85;;;;;;;32.86;35.51;100509.03;5030582;28;68829;-40
2021/05/03 07:10:55;;;;;;;9.35;5.38;;;;;;;32.91;35.88;100500.97;5026576;28;65715;-41
2021/05/03 07:13:26;;;;;;;6.40;5.90;;;;;;;32.97;36.00;100499.19;5020747;28;70828;-41
2021/05/03 07:15:56;;;;;;;8.68;5.95;;;;;;;33.01;35.48;100499.53;5033357;28;66074;-40
2021/05/03 07:18:27;;;;;;;6.00;5.38;;;;;;;32.98;35.04;100498.09;5035579;28;70932;-40
2021/05/03 07:21:16;;;;;;;13.65;4.97;;;;;;;32.96;34.84;100502.97;5030825;28;66128;-39
2021/05/03 07:23:49;;;;;;;7.68;5.60;;;;;;;32.94;35.07;100489.63;5031161;28;69995;-39
2021/05/03 07:26:19;;;;;;;5.20;4.65;;;;;;;33.00;34.96;100492.47;5030794;28;66156;-41
2021/05/03 07:28:50;;;;;;;8.77;4.72;;;;;;;33.09;35.15;100496.44;5026084;28;69305;-39
2021/05/03 07:31:20;;;;;;;5.75;5.32;;;;;;;33.12;35.14;100496.75;5034835;28;65911;-41
2021/05/03 07:33:50;;;;;;;6.80;5.45;;;;;;;33.10;34.54;100498.09;5018602;28;70030;-39
2021/05/03 07:36:20;;;;;;;7.20;5.68;;;;;;;33.10;35.10;100488.03;5029715;28;65674;-39
2021/05/03 07:38:52;;;;;;;7.70;5.80;;;;;;;33.12;35.30;100487.78;5034229;28;70084;-40
2021/05/03 07:41:25;;;;;;;12.10;6.07;;;;;;;33.16;36.52;100469.94;5033662;28;65388;-41
2021/05/03 07:43:56;;;;;;;10.70;5.78;;;;;;;33.36;36.26;100486.56;5030197;28;70187;-39
2021/05/03 07:46:27;;;;;;;6.45;5.15;;;;;;;33.51;36.45;100477.81;5032565;28;66677;-40
2021/05/03 07:49:00;;;;;;;11.25;5.65;;;;;;;33.65;36.69;100464.75;5030992;28;70308;-40
2021/05/03 07:51:31;;;;;;;12.48;5.30;;;;;;;33.76;36.94;100466.53;5029654;28;66595;-39
2021/05/03 07:54:02;;;;;;;5.95;5.30;;;;;;;33.94;37.05;100462.72;5029628;28;69671;-39
2021/05/03 07:56:36;;;;;;;15.40;5.72;;;;;;;34.05;37.35;100455.56;5031367;28;64702;-39
2021/05/03 07:59:06;;;;;;;11.00;5.82;;;;;;;34.16;37.84;100462.78;5034904;28;70422;-39
2021/05/03 08:01:38;;;;;;;15.73;5.90;;;;;;;34.18;37.52;100459.78;5033505;28;65659;-40
2021/05/03 08:04:08;;;;;;;11.73;5.60;;;;;;;34.08;37.25;100460.50;5031694;28;70020;-40
2021/05/03 08:06:39;;;;;;;17.65;5.38;;;;;;;34.07;36.87;100455.28;5035120;28;65821;-40
2021/05/03 08:09:08;;;;;;;13.25;4.93;;;;;;;33.97;36.77;100459.50;5031816;28;68925;-38
2021/05/03 08:11:43;;;;;;;5.22;4.75;;;;;;;33.94;36.42;100453.75;5030787;28;66112;-39
2021/05/03 08:14:15;;;;;;;13.73;5.78;;;;;;;33.93;36.42;100458.34;5034064;28;68842;-39
2021/05/03 08:17:01;;;;;;;20.17;5.82;;;;;;;33.88;36.43;100454.72;5032279;28;66516;-39
2021/05/03 08:19:32;;;;;;;15.70;6.55;;;;;;;33.91;41.03;100441.47;5029664;28;68992;-38
2021/05/03 08:22:06;;;;;;;36.70;8.68;;;;;;;34.20;44.24;100447.56;5029690;28;65298;-40
2021/05/03 08:24:38;;;;;;;23.33;9.47;;;;;;;34.47;45.02;100453.06;5030663;28;70017;-39
2021/05/03 08:27:08;;;;;;;29.40;9.55;;;;;;;34.60;45.68;100457.34;5031480;28;65062;-39
2021/05/03 08:29:38;;;;;;;29.33;9.55;;;;;;;34.75;45.96;100444.97;5036935;28;69919;-40
2021/05/03 08:32:09;;;;;;;31.80;9.52;;;;;;;34.86;46.33;100446.69;5025537;28;65419;-38
2021/05/03 08:34:40;;;;;;;22.63;9.25;;;;;;;34.90;46.56;100448.63;5029578;28;69987;-38
2021/05/03 08:37:12;;;;;;;16.38;7.55;;;;;;;34.98;46.47;100444.63;5031610;28;65152;-39
2021/05/03 08:39:42;;;;;;;;;;;;;;;35.03;47.61;100444.66;5034288;28;70721;-39
2021/05/03 08:42:15;;;;;;;17.25;6.32;;;;;;;35.16;45.98;100442.59;5031519;28;66274;-39
2021/05/03 08:44:48;;;;;;;28.67;6.60;;;;;;;35.24;45.97;100433.97;5033237;28;69285;-39
2021/05/03 08:47:21;;;;;;;37.08;8.20;;;;;;;35.28;45.82;100429.63;5021990;28;66648;-40
2021/05/03 08:49:57;;;;;;;33.25;8.00;;;;;;;35.35;45.31;100436.53;5032028;28;69998;-40
2021/05/03 08:52:36;;;;;;;27.58;8.20;;;;;;;35.38;45.75;100424.25;5028071;28;65576;-40
2021/05/03 08:55:11;;;;;;;37.05;8.48;;;;;;;35.44;45.18;100428.66;5018591;28;70055;-40
2021/05/03 08:57:42;;;;;;;32.25;8.57;;;;;;;35.53;45.02;100443.44;5025397;28;65777;-40
2021/05/03 09:00:16;;;;;;;28.52;7.30;;;;;;;35.52;45.24;100444.53;5030852;28;68970;-39
2021/05/03 09:02:47;;;;;;;31.95;7.70;;;;;;;35.54;44.30;100439.63;5008230;28;66687;-39
2021/05/03 09:05:18;;;;;;;33.67;8.00;;;;;;;35.52;44.00;100441.81;5031208;28;70780;-39
2021/05/03 09:07:50;;;;;;;21.20;6.55;;;;;;;35.46;44.25;100426.47;5037956;28;65953;-38
2021/05/03 09:10:22;;;;;;;41.92;7.15;;;;;;;35.56;43.86;100442.94;5037378;28;68799;-39
2021/05/03 09:12:53;;;;;;;26.10;6.97;;;;;;;35.58;43.43;100446.25;5039034;28;65992;-39
2021/05/03 09:15:24;;;;;;;31.00;7.78;;;;;;;35.58;43.66;100443.53;5036550;28;70458;-39
2021/05/03 09:17:54;;;;;;;17.52;6.70;;;;;;;35.56;43.70;100447.59;5034792;28;65736;-38
2021/05/03 09:20:26;;;;;;;22.30;6.80;;;;;;;35.60;44.20;100447.88;5035378;28;70258;-39
2021/05/03 09:23:02;;;;;;;14.80;6.07;;;;;;;35.65;43.36;100456.09;5045231;28;66175;-40
2021/05/03 09:25:46;;;;;;;28.15;6.35;;;;;;;35.52;43.66;100436.38;5041229;28;68874;-40
2021/05/03 09:28:20;;;;;;;20.10;6.13;;;;;;;35.67;43.09;100454.75;5027136;28;66210;-39
2021/05/03 09:30:57;;;;;;;14.68;6.30;;;;;;;35.67;43.65;100459.41;5032351;28;68947;-38
2021/05/03 09:33:29;;;;;;;17.50;6.65;;;;;;;35.57;42.72;100433.66;5038664;27;65367;-39
2021/05/03 09:36:04;;;;;;;18.60;7.28;;;;;;;35.57;42.45;100439.13;5024329;28;69324;-39
2021/05/03 09:38:38;;;;;;;32.22;7.07;;;;;;;35.46;41.77;100415.56;5033293;28;66620;-39
2021/05/03 09:41:26;;;;;;;32.90;8.05;;;;;;;35.49;40.57;100431.41;5041034;28;70223;-38
2021/05/03 09:44:07;;;;;;;29.48;7.68;;;;;;;35.68;41.42;100461.03;5040279;28;66532;-38
2021/05/03 09:46:48;;;;;;;42.33;7.97;;;;;;;35.54;40.99;100445.09;5040073;28;70043;-38
2021/05/03 09:49:22;;;;;;;14.82;7.18;;;;;;;35.66;40.82;100460.47;5036663;28;65205;-40
2021/05/03 09:51:56;;;;;;;29.15;7.43;;;;;;;35.67;41.36;100459.41;5039414;28;69620;-38
2021/05/03 09:54:31;;;;;;;22.17;6.63;;;;;;;35.56;41.73;100464.78;5039349;28;66127;-39
2021/05/03 09:57:06;;;;;;;18.05;6.68;;;;;;;35.61;41.19;100466.72;5038984;28;70043;-38
2021/05/03 09:59:43;;;;;;;22.73;6.75;;;;;;;35.60;41.58;100469.69;5044847;28;64992;-39
2021/05/03 10:02:16;;;;;;;14.93;6.93;;;;;;;35.47;41.34;100455.41;5031919;28;70555;-39
2021/05/03 10:05:03;;;;;;;29.02;7.22;;;;;;;35.55;41.20;100467.72;5041583;28;66047;-39
2021/05/03 10:07:37;;;;;;;31.23;7.25;;;;;;;35.62;41.91;100470.28;5041634;28;69790;-39
2021/05/03 10:12:45;;;;;;;24.05;6.47;;;;;;;35.69;41.27;100476.31;5043480;28;70958;-39
2021/05/03 10:15:18;;;;;;;37.13;6.70;;;;;;;35.57;41.59;100477.31;5047389;28;66111;-38
2021/05/03 10:17:49;;;;;;;24.35;6.97;;;;;;;35.54;40.94;100472.34;5049830;28;70050;-39
2021/05/03 10:20:20;;;;;;;20.35;7.15;;;;;;;35.51;40.93;100483.78;5041595;28;66368;-38
2021/05/03 10:22:56;;;;;;;36.45;7.40;;;;;;;35.40;41.38;100487.53;5048745;28;70044;-38
2021/05/03 10:25:26;;;;;;;35.80;6.70;;;;;;;35.44;41.77;100498.72;5042738;28;65000;-38
2021/05/03 10:27:59;;;;;;;17.73;5.63;;;;;;;35.31;41.30;100489.09;5045973;28;69304;-36
2021/05/03 10:30:32;;;;;;;22.70;6.20;;;;;;;35.35;42.19;100495.66;5043197;28;66491;-38
2021/05/03 10:33:03;;;;;;;52.58;7.57;;;;;;;35.38;42.41;100511.50;5035604;28;70281;-37
2021/05/03 10:35:49;;;;;;;57.08;8.15;;;;;;;35.36;42.38;100509.06;5038038;28;65304;-38
2021/05/03 10:38:40;;;;;;;55.45;7.35;;;;;;;35.32;42.68;100512.56;5037255;28;70035;-39
2021/05/03 10:41:26;;;;;;;72.43;8.15;;;;;;;35.28;42.36;100495.91;5038718;28;67871;-39
2021/05/03 10:44:21;;;;;;;41.78;6.63;;;;;;;35.33;42.69;100511.50;5042552;28;70877;-40
2021/05/03 10:47:00;;;;;;;33.85;6.45;;;;;;;35.35;43.05;100518.34;5041220;28;66255;-40
2021/05/03 10:49:44;;;;;;;45.05;6.53;;;;;;;35.22;43.54;100524.22;5045318;28;69931;-39
2021/05/03 10:52:31;;;;;;;54.58;6.78;;;;;;;35.20;43.38;100517.38;5039685;28;66511;-39
2021/05/03 10:55:01;;;;;;;68.05;6.93;;;;;;;35.18;43.92;100522.25;5040090;28;69948;-40
2021/05/03 10:57:34;;;;;;;49.35;8.25;;;;;;;35.19;43.46;100526.59;5042586;28;66023;-39
2021/05/03 11:00:08;;;;;;;56.88;7.70;;;;;;;35.06;43.39;100520.50;5044736;28;70322;-39
2021/05/03 11:02:39;;;;;;;48.15;7.65;;;;;;;35.14;44.19;100541.84;5049795;28;65552;-39
2021/05/03 11:05:10;;;;;;;37.33;7.38;;;;;;;35.06;44.78;100525.13;5042089;28;69751;-38
2021/05/03 11:08:06;;;;;;;45.42;8.00;;;;;;;35.20;45.09;100544.63;5040552;28;66298;-38
2021/05/03 11:11:02;;;;;;;51.75;8.50;;;;;;;35.26;45.97;100551.78;5036393;28;69404;-38
2021/05/03 11:13:41;;;;;;;40.47;7.20;;;;;;;35.20;44.88;100552.81;5043666;28;66284;-38
2021/05/03 11:16:30;;;;;;;35.40;7.53;;;;;;;35.10;44.67;100568.00;5038987;28;69848;-39
2021/05/03 11:19:22;;;;;;;30.33;6.65;;;;;;;34.93;43.55;100545.41;5027211;28;65361;-39
2021/05/03 11:21:52;;;;;;;31.42;6.82;;;;;;;34.91;43.00;100575.66;5045014;28;69282;-38
2021/05/03 11:24:29;;;;;;;17.33;6.60;;;;;;;34.73;42.77;100564.25;5038456;28;66578;-38
2021/05/03 11:27:07;;;;;;;30.60;7.18;;;;;;;34.75;42.07;100594.81;5043569;28;69189;-38
2021/05/03 11:30:00;;;;;;;21.05;6.25;;;;;;;34.65;42.10;100596.31;5053108;28;66090;-39
2021/05/03 11:32:35;;;;;;;15.88;6.32;;;;;;;34.57;42.43;100613.09;5039481;28;69986;-39
2021/05/03 11:40:53;;;;;;;25.23;5.80;;;;;;;34.39;42.06;100597.84;5032986;28;66194;-39
2021/05/03 11:46:31;;;;;;;23.85;6.18;;;;;;;34.32;41.21;100602.63;5034578;27;66147;-39
2021/05/03 11:49:15;;;;;;;22.38;6.55;;;;;;;34.28;41.27;100617.00;5034865;28;69622;-38
2021/05/03 11:51:50;;;;;;;29.55;7.03;;;;;;;34.10;41.50;100594.44;5038211;28;66051;-39
2021/05/03 11:54:27;;;;;;;19.42;6.07;;;;;;;34.08;41.52;100615.63;5041084;28;70382;-38
2021/05/03 11:57:02;;;;;;;19.60;5.93;;;;;;;34.08;42.10;100626.53;5042262;28;66334;-38
2021/05/03 11:59:34;;;;;;;25.30;6.10;;;;;;;34.07;41.77;100619.41;5037650;28;68989;-39
2021/05/03 12:02:10;;;;;;;28.25;6.88;;;;;;;34.02;41.80;100627.50;5037700;28;66238;-39
2021/05/03 12:04:47;;;;;;;23.58;6.25;;;;;;;33.98;42.10;100624.41;5009579;28;70426;-39
2021/05/03 12:07:26;;;;;;;29.45;6.72;;;;;;;33.93;42.56;100632.50;5039238;28;65408;-39